createdAt,value
2017-07-30T00:02:05.601Z,22.96
2017-07-30T00:04:33.118Z,22.90
2017-07-30T00:07:00.871Z,22.89
2017-07-30T00:09:28.484Z,22.80
2017-07-30T00:11:56.015Z,22.79
2017-07-30T00:14:23.586Z,22.90
2017-07-30T00:16:51.199Z,22.89
2017-07-30T00:19:18.759Z,22.89
2017-07-30T00:21:46.293Z,22.85
2017-07-30T00:24:13.886Z,22.88
2017-07-30T00:26:41.452Z,22.34
2017-07-30T00:29:09.027Z,22.36
2017-07-30T00:31:36.594Z,22.48
2017-07-30T00:34:04.123Z,22.57
2017-07-30T00:36:31.859Z,22.62
2017-07-30T00:38:59.422Z,22.55
2017-07-30T00:41:26.963Z,22.42
2017-07-30T00:43:54.498Z,22.51
2017-07-30T00:46:22.088Z,22.55
2017-07-30T00:48:49.631Z,22.45
2017-07-30T00:51:17.150Z,22.37
2017-07-30T00:53:44.696Z,22.46
2017-07-30T00:56:12.243Z,22.44
2017-07-30T00:58:39.751Z,22.59
2017-07-30T01:01:07.321Z,22.50
2017-07-30T01:03:34.900Z,22.46
2017-07-30T01:06:02.465Z,22.35
2017-07-30T01:08:30.071Z,22.37
2017-07-30T01:10:57.626Z,22.43
2017-07-30T01:13:25.177Z,22.32
2017-07-30T01:15:52.773Z,22.28
2017-07-30T01:18:20.369Z,22.21
2017-07-30T01:20:48.107Z,22.16
2017-07-30T01:23:15.693Z,21.64
2017-07-30T01:25:43.226Z,21.28
2017-07-30T01:28:10.760Z,21.41
2017-07-30T01:30:38.461Z,21.57
2017-07-30T01:33:06.279Z,21.66
2017-07-30T01:35:33.838Z,21.71
2017-07-30T01:38:01.412Z,21.77
2017-07-30T01:40:29.069Z,21.82
2017-07-30T01:42:56.693Z,21.73
2017-07-30T01:45:24.272Z,21.35
2017-07-30T01:47:51.843Z,21.29
2017-07-30T01:50:19.477Z,21.42
2017-07-30T01:52:47.130Z,21.49
2017-07-30T01:55:14.733Z,21.46
2017-07-30T01:57:42.274Z,21.29
2017-07-30T02:00:09.938Z,20.59
2017-07-30T02:02:37.772Z,20.66
2017-07-30T02:05:05.289Z,20.88
2017-07-30T02:07:32.898Z,21.00
2017-07-30T02:10:00.777Z,21.09
2017-07-30T02:12:28.318Z,21.05
2017-07-30T02:14:56.090Z,20.97
2017-07-30T02:17:23.661Z,20.99
2017-07-30T02:19:51.234Z,20.96
2017-07-30T02:22:18.862Z,21.01
2017-07-30T02:24:46.666Z,21.14
2017-07-30T02:27:14.207Z,21.17
2017-07-30T02:29:41.770Z,21.15
2017-07-30T02:32:09.346Z,21.28
2017-07-30T02:34:36.995Z,21.11
2017-07-30T02:37:04.550Z,21.18
2017-07-30T02:39:32.129Z,21.21
2017-07-30T02:41:59.714Z,21.03
2017-07-30T02:44:27.278Z,21.08
2017-07-30T02:46:54.836Z,21.02
2017-07-30T02:49:22.589Z,20.97
2017-07-30T02:51:50.133Z,21.05
2017-07-30T02:54:17.768Z,20.92
2017-07-30T02:56:45.301Z,20.92
2017-07-30T02:59:12.841Z,21.06
2017-07-30T03:01:40.437Z,20.90
2017-07-30T03:04:07.976Z,20.82
2017-07-30T03:06:35.533Z,20.88
2017-07-30T03:09:03.143Z,21.03
2017-07-30T03:11:30.718Z,20.87
2017-07-30T03:13:58.266Z,20.79
2017-07-30T03:16:25.837Z,20.79
2017-07-30T03:18:53.369Z,20.82
2017-07-30T03:21:20.967Z,20.77
2017-07-30T03:23:48.581Z,20.75
2017-07-30T03:26:16.519Z,20.71
2017-07-30T03:28:44.140Z,20.73
2017-07-30T03:31:11.733Z,20.76
2017-07-30T03:33:39.540Z,20.64
2017-07-30T03:36:07.066Z,20.64
2017-07-30T03:38:34.653Z,20.55
2017-07-30T03:41:02.237Z,20.59
2017-07-30T03:43:29.761Z,20.85
2017-07-30T03:45:57.338Z,20.66
2017-07-30T03:48:24.869Z,20.40
2017-07-30T03:50:52.468Z,20.22
2017-07-30T03:53:20.057Z,20.28
2017-07-30T03:55:47.618Z,20.48
2017-07-30T03:58:15.171Z,20.69
2017-07-30T04:00:42.750Z,20.48
2017-07-30T04:03:10.299Z,20.41
2017-07-30T04:05:37.835Z,20.59
2017-07-30T04:08:05.456Z,20.73
2017-07-30T04:10:33.039Z,20.76
2017-07-30T04:13:00.571Z,20.87
2017-07-30T04:15:28.206Z,20.89
2017-07-30T04:17:55.869Z,20.88
2017-07-30T04:20:23.414Z,20.95
2017-07-30T04:22:51.017Z,20.98
2017-07-30T04:25:18.531Z,20.96
2017-07-30T04:27:46.055Z,20.96
2017-07-30T04:30:13.713Z,21.07
2017-07-30T04:32:41.274Z,21.18
2017-07-30T04:35:08.855Z,21.35
2017-07-30T04:37:36.446Z,21.24
2017-07-30T04:40:04.072Z,21.25
2017-07-30T04:42:31.628Z,21.35
2017-07-30T04:44:59.270Z,21.43
2017-07-30T04:47:26.974Z,21.36
2017-07-30T04:49:54.513Z,21.37
2017-07-30T04:52:22.895Z,21.49
2017-07-30T04:54:50.657Z,21.55
2017-07-30T04:57:18.230Z,21.57
2017-07-30T04:59:45.831Z,21.70
2017-07-30T05:02:13.460Z,21.56
2017-07-30T05:04:41.043Z,21.78
2017-07-30T05:07:08.603Z,21.93
2017-07-30T05:09:36.165Z,21.89
2017-07-30T05:12:03.757Z,22.00
2017-07-30T05:14:31.528Z,22.26
2017-07-30T05:16:59.109Z,22.38
2017-07-30T05:19:26.851Z,22.40
2017-07-30T05:21:54.413Z,22.65
2017-07-30T05:24:22.187Z,22.72
2017-07-30T05:26:49.966Z,22.93
2017-07-30T05:29:17.559Z,23.33
2017-07-30T05:31:45.187Z,23.66
2017-07-30T05:34:12.735Z,23.85
2017-07-30T05:36:41.033Z,24.00
2017-07-30T05:39:08.601Z,24.25
2017-07-30T05:41:36.182Z,23.99
2017-07-30T05:44:03.752Z,23.53
2017-07-30T05:46:31.361Z,24.23
2017-07-30T05:48:58.902Z,24.66
2017-07-30T05:51:26.666Z,25.32
2017-07-30T05:53:54.259Z,25.16
2017-07-30T05:56:21.851Z,25.55
2017-07-30T05:58:49.387Z,25.91
2017-07-30T06:01:16.934Z,25.91
2017-07-30T06:03:44.448Z,26.00
2017-07-30T06:06:12.027Z,26.25
2017-07-30T06:08:39.576Z,26.49
2017-07-30T06:11:07.345Z,26.47
2017-07-30T06:13:34.871Z,25.94
2017-07-30T06:16:02.652Z,26.61
2017-07-30T06:18:30.171Z,27.15
2017-07-30T06:20:57.726Z,27.28
2017-07-30T06:23:25.338Z,27.77
2017-07-30T06:25:53.146Z,28.12
2017-07-30T06:28:20.690Z,28.03
2017-07-30T06:30:48.333Z,28.18
2017-07-30T06:33:15.862Z,28.54
2017-07-30T06:35:43.915Z,28.71
2017-07-30T06:38:11.501Z,28.67
2017-07-30T06:40:39.431Z,28.66
2017-07-30T06:43:07.033Z,28.87
2017-07-30T06:45:34.637Z,28.93
2017-07-30T06:48:02.192Z,29.31
2017-07-30T06:50:29.719Z,29.25
2017-07-30T06:52:57.314Z,29.34
2017-07-30T06:55:24.843Z,29.57
2017-07-30T06:57:52.348Z,29.46
2017-07-30T07:00:19.970Z,29.70
2017-07-30T07:02:47.530Z,29.58
2017-07-30T07:05:15.374Z,29.96
2017-07-30T07:07:42.974Z,29.87
2017-07-30T07:10:10.534Z,30.08
2017-07-30T07:12:38.066Z,30.45
2017-07-30T07:15:05.717Z,30.62
2017-07-30T07:17:33.298Z,30.91
2017-07-30T07:20:00.877Z,29.98
2017-07-30T07:22:28.501Z,30.29
2017-07-30T07:24:56.077Z,29.93
2017-07-30T07:27:23.961Z,30.38
2017-07-30T07:29:51.561Z,30.99
2017-07-30T07:32:19.132Z,30.69
2017-07-30T07:34:46.648Z,31.19
2017-07-30T07:37:14.189Z,30.93
2017-07-30T07:39:41.794Z,30.97
2017-07-30T07:42:09.803Z,30.85
2017-07-30T07:44:37.339Z,31.37
2017-07-30T07:47:04.933Z,31.28
2017-07-30T07:49:32.534Z,31.10
2017-07-30T07:52:00.163Z,31.40
2017-07-30T07:54:27.748Z,31.81
2017-07-30T07:56:55.262Z,31.61
2017-07-30T07:59:23.342Z,31.72
2017-07-30T08:01:50.949Z,31.73
2017-07-30T08:04:18.501Z,31.93
2017-07-30T08:06:46.813Z,31.51
2017-07-30T08:09:14.440Z,31.55
2017-07-30T08:11:42.037Z,31.47
2017-07-30T08:14:09.620Z,31.61
2017-07-30T08:16:37.242Z,31.43
2017-07-30T08:19:05.063Z,30.41
2017-07-30T08:21:32.647Z,31.02
2017-07-30T08:24:00.257Z,31.39
2017-07-30T08:26:28.632Z,31.77
2017-07-30T08:28:56.201Z,31.46
2017-07-30T08:31:23.788Z,30.56
2017-07-30T08:33:51.336Z,30.91
2017-07-30T08:36:18.925Z,31.18
2017-07-30T08:38:46.530Z,31.49
2017-07-30T08:41:14.169Z,31.66
2017-07-30T08:43:41.803Z,31.98
2017-07-30T08:46:09.419Z,32.18
2017-07-30T08:48:37.234Z,32.57
2017-07-30T08:51:04.894Z,32.87
2017-07-30T08:53:32.489Z,32.82
2017-07-30T08:56:00.014Z,32.21
2017-07-30T08:58:27.587Z,31.71
2017-07-30T09:00:55.223Z,31.27
2017-07-30T09:03:22.940Z,31.24
2017-07-30T09:05:50.695Z,31.69
2017-07-30T09:08:18.249Z,31.79
2017-07-30T09:10:46.067Z,32.42
2017-07-30T09:13:13.687Z,32.53
2017-07-30T09:15:41.289Z,32.82
2017-07-30T09:18:09.059Z,33.38
2017-07-30T09:20:36.826Z,33.38
2017-07-30T09:23:04.407Z,33.38
2017-07-30T09:25:31.946Z,32.66
2017-07-30T09:27:59.698Z,32.34
2017-07-30T09:30:27.343Z,31.76
2017-07-30T09:32:55.110Z,32.09
2017-07-30T09:35:22.626Z,32.20
2017-07-30T09:37:50.240Z,31.65
2017-07-30T09:40:18.043Z,31.90
2017-07-30T09:42:45.563Z,31.25
2017-07-30T09:45:13.163Z,31.82
2017-07-30T09:47:40.927Z,31.67
2017-07-30T09:50:08.577Z,32.27
2017-07-30T09:52:36.165Z,32.02
2017-07-30T09:55:03.781Z,32.16
2017-07-30T09:57:31.551Z,32.60
2017-07-30T09:59:59.147Z,32.56
2017-07-30T10:02:26.733Z,31.78
2017-07-30T10:04:54.261Z,31.49
2017-07-30T10:07:22.105Z,31.65
2017-07-30T10:09:49.657Z,31.51
2017-07-30T10:12:17.286Z,31.82
2017-07-30T10:14:44.833Z,31.71
2017-07-30T10:17:12.410Z,31.92
2017-07-30T10:19:39.952Z,31.55
2017-07-30T10:22:07.459Z,31.76
2017-07-30T10:24:35.038Z,32.09
2017-07-30T10:27:02.626Z,32.20
2017-07-30T10:29:30.240Z,32.82
2017-07-30T10:31:57.931Z,33.21
2017-07-30T10:34:25.563Z,33.52
2017-07-30T10:36:53.107Z,33.83
2017-07-30T10:39:20.705Z,33.98
2017-07-30T10:41:48.293Z,33.94
2017-07-30T10:44:15.866Z,32.47
2017-07-30T10:46:43.499Z,32.43
2017-07-30T10:49:11.266Z,32.20
2017-07-30T10:51:38.865Z,31.90
2017-07-30T10:54:06.503Z,32.05
2017-07-30T10:56:34.042Z,32.10
2017-07-30T10:59:01.581Z,32.17
2017-07-30T11:01:29.153Z,32.20
2017-07-30T11:03:56.766Z,32.22
2017-07-30T11:06:24.651Z,32.52
2017-07-30T11:08:52.257Z,32.58
2017-07-30T11:11:20.011Z,32.80
2017-07-30T11:13:47.542Z,32.87
2017-07-30T11:16:15.138Z,33.10
2017-07-30T11:18:42.887Z,33.65
2017-07-30T11:21:10.675Z,33.90
2017-07-30T11:23:38.253Z,33.48
2017-07-30T11:26:05.812Z,33.77
2017-07-30T11:28:33.373Z,33.99
2017-07-30T11:31:01.023Z,34.30
2017-07-30T11:33:28.559Z,34.47
2017-07-30T11:35:56.153Z,34.60
2017-07-30T11:38:23.791Z,34.62
2017-07-30T11:40:51.376Z,34.38
2017-07-30T11:43:19.149Z,34.06
2017-07-30T11:45:46.737Z,33.84
2017-07-30T11:48:14.485Z,34.00
2017-07-30T11:50:42.110Z,33.60
2017-07-30T11:53:09.691Z,33.72
2017-07-30T11:55:37.334Z,33.20
2017-07-30T11:58:04.920Z,32.92
2017-07-30T12:00:32.543Z,33.20
2017-07-30T12:03:00.061Z,33.60
2017-07-30T12:05:27.676Z,33.69
2017-07-30T12:07:55.263Z,33.88
2017-07-30T12:10:22.845Z,33.87
2017-07-30T12:12:50.473Z,33.68
2017-07-30T12:15:18.022Z,33.91
2017-07-30T12:17:45.587Z,34.19
2017-07-30T12:20:13.129Z,34.37
2017-07-30T12:22:40.696Z,33.91
2017-07-30T12:25:08.283Z,33.49
2017-07-30T12:27:35.859Z,33.48
2017-07-30T12:30:04.611Z,33.45
2017-07-30T12:32:32.139Z,33.49
2017-07-30T12:34:59.889Z,33.47
2017-07-30T12:37:27.493Z,33.38
2017-07-30T12:39:55.152Z,33.39
2017-07-30T12:42:22.704Z,33.45
2017-07-30T12:44:50.323Z,33.44
2017-07-30T12:47:17.905Z,32.91
2017-07-30T12:49:45.425Z,32.94
2017-07-30T12:52:12.971Z,32.94
2017-07-30T12:54:41.458Z,33.17
2017-07-30T12:57:08.972Z,33.44
2017-07-30T12:59:36.664Z,33.47
2017-07-30T13:02:04.243Z,33.39
2017-07-30T13:04:31.771Z,33.64
2017-07-30T13:06:59.312Z,33.47
2017-07-30T13:09:26.890Z,33.31
2017-07-30T13:11:54.415Z,33.38
2017-07-30T13:14:22.028Z,33.18
2017-07-30T13:16:49.806Z,33.30
2017-07-30T13:19:17.341Z,33.16
2017-07-30T13:21:44.940Z,33.21
2017-07-30T13:24:12.529Z,33.32
2017-07-30T13:26:40.113Z,33.34
2017-07-30T13:29:07.746Z,33.54
2017-07-30T13:31:35.363Z,33.13
2017-07-30T13:34:02.987Z,33.12
2017-07-30T13:36:30.527Z,33.26
2017-07-30T13:38:58.145Z,33.14
2017-07-30T13:41:25.779Z,33.07
2017-07-30T13:43:53.362Z,32.87
2017-07-30T13:46:20.967Z,32.87
2017-07-30T13:48:48.548Z,33.00
2017-07-30T13:51:16.121Z,32.83
2017-07-30T13:53:43.701Z,32.92
2017-07-30T13:56:11.308Z,32.74
2017-07-30T13:58:38.889Z,32.84
2017-07-30T14:01:06.540Z,33.00
2017-07-30T14:03:34.065Z,33.07
2017-07-30T14:06:01.857Z,32.90
2017-07-30T14:08:29.425Z,32.70
2017-07-30T14:10:57.017Z,32.60
2017-07-30T14:13:24.538Z,32.46
2017-07-30T14:15:52.085Z,32.55
2017-07-30T14:18:19.685Z,32.43
2017-07-30T14:20:47.303Z,32.33
2017-07-30T14:23:14.853Z,32.30
2017-07-30T14:25:42.423Z,32.31
2017-07-30T14:28:10.538Z,32.51
2017-07-30T14:30:38.125Z,32.44
2017-07-30T14:33:06.006Z,32.59
2017-07-30T14:35:33.567Z,32.53
2017-07-30T14:38:01.157Z,32.57
2017-07-30T14:40:29.327Z,32.43
2017-07-30T14:42:56.870Z,32.34
2017-07-30T14:45:24.442Z,32.43
2017-07-30T14:47:52.052Z,32.29
2017-07-30T14:50:19.608Z,32.46
2017-07-30T14:52:47.190Z,32.50
2017-07-30T14:55:15.071Z,32.55
2017-07-30T14:57:42.645Z,32.37
2017-07-30T15:00:10.286Z,32.37
2017-07-30T15:02:37.835Z,32.28
2017-07-30T15:05:05.383Z,32.38
2017-07-30T15:07:32.954Z,32.35
2017-07-30T15:10:00.475Z,32.36
2017-07-30T15:12:28.227Z,32.41
2017-07-30T15:14:55.814Z,32.41
2017-07-30T15:17:23.585Z,32.38
2017-07-30T15:19:51.198Z,32.20
2017-07-30T15:22:18.850Z,32.01
2017-07-30T15:24:47.160Z,32.05
2017-07-30T15:27:15.565Z,32.09
2017-07-30T15:29:43.280Z,32.03
2017-07-30T15:32:10.921Z,32.04
2017-07-30T15:34:38.838Z,32.09
2017-07-30T15:37:06.948Z,31.97
2017-07-30T15:39:35.420Z,32.03
2017-07-30T15:42:03.200Z,31.95
2017-07-30T15:44:30.788Z,31.94
2017-07-30T15:46:58.428Z,31.92
2017-07-30T15:49:26.217Z,31.80
2017-07-30T15:51:53.813Z,31.70
2017-07-30T15:54:22.413Z,31.79
2017-07-30T15:56:49.999Z,31.80
2017-07-30T15:59:17.576Z,31.82
2017-07-30T16:01:45.203Z,31.63
2017-07-30T16:04:13.735Z,31.58
2017-07-30T16:06:41.352Z,31.61
2017-07-30T16:09:09.028Z,31.54
2017-07-30T16:11:37.880Z,31.46
2017-07-30T16:14:05.515Z,31.42
2017-07-30T16:16:33.173Z,31.35
2017-07-30T16:19:00.778Z,31.24
2017-07-30T16:21:28.362Z,31.29
2017-07-30T16:23:55.976Z,31.47
2017-07-30T16:26:24.403Z,31.29
2017-07-30T16:28:51.986Z,31.29
2017-07-30T16:31:19.647Z,31.26
2017-07-30T16:33:48.610Z,31.15
2017-07-30T16:36:16.207Z,31.16
2017-07-30T16:38:43.939Z,30.98
2017-07-30T16:41:11.564Z,30.93
2017-07-30T16:43:39.228Z,30.92
2017-07-30T16:46:06.931Z,30.90
2017-07-30T16:48:34.569Z,30.86
2017-07-30T16:51:02.261Z,30.82
2017-07-30T16:53:29.950Z,30.78
2017-07-30T16:55:57.583Z,30.75
2017-07-30T16:58:25.254Z,30.68
2017-07-30T17:00:53.293Z,30.65
2017-07-30T17:03:20.925Z,30.57
2017-07-30T17:05:48.588Z,30.53
2017-07-30T17:08:16.301Z,30.46
2017-07-30T17:10:43.887Z,30.40
2017-07-30T17:13:11.617Z,30.43
2017-07-30T17:15:39.785Z,30.37
2017-07-30T17:21:29.873Z,30.20
2017-07-30T17:27:18.920Z,29.83
2017-07-30T17:29:48.172Z,29.81
2017-07-30T17:32:15.954Z,29.79
2017-07-30T17:34:43.598Z,29.63
2017-07-30T17:37:11.256Z,29.35
2017-07-30T17:39:38.931Z,29.38
2017-07-30T17:42:06.715Z,29.42
2017-07-30T17:44:35.296Z,29.29
2017-07-30T17:47:02.985Z,29.23
2017-07-30T17:49:30.633Z,29.18
2017-07-30T17:51:58.297Z,29.12
2017-07-30T17:54:26.813Z,29.08
2017-07-30T17:56:54.358Z,29.08
2017-07-30T17:59:22.268Z,29.07
2017-07-30T18:01:49.883Z,28.96
2017-07-30T18:04:17.445Z,28.88
2017-07-30T18:06:45.185Z,28.72
2017-07-30T18:09:12.774Z,28.61
2017-07-30T18:11:40.361Z,28.55
2017-07-30T18:14:07.931Z,28.44
2017-07-30T18:16:36.441Z,28.37
2017-07-30T18:19:04.059Z,28.32
2017-07-30T18:21:31.623Z,28.32
2017-07-30T18:23:59.249Z,28.26
2017-07-30T18:26:26.840Z,28.09
2017-07-30T18:28:54.431Z,28.00
2017-07-30T18:31:22.033Z,27.99
2017-07-30T18:33:49.661Z,27.83
2017-07-30T18:36:17.234Z,27.83
2017-07-30T18:38:44.819Z,27.85
2017-07-30T18:41:12.439Z,27.71
2017-07-30T18:43:40.055Z,27.70
2017-07-30T18:46:07.640Z,27.59
2017-07-30T18:48:35.210Z,27.61
2017-07-30T18:51:03.338Z,27.51
2017-07-30T18:53:30.931Z,27.44
2017-07-30T18:55:58.515Z,27.38
2017-07-30T18:58:26.167Z,27.39
2017-07-30T19:00:53.746Z,27.36
2017-07-30T19:03:21.384Z,27.31
2017-07-30T19:05:49.009Z,27.32
2017-07-30T19:08:16.812Z,27.24
2017-07-30T19:10:44.446Z,27.10
2017-07-30T19:13:12.077Z,27.07
2017-07-30T19:15:40.077Z,27.17
2017-07-30T19:18:07.705Z,27.12
2017-07-30T19:20:35.312Z,27.01
2017-07-30T19:23:02.896Z,27.13
2017-07-30T19:25:30.451Z,26.96
2017-07-30T19:27:58.076Z,26.95
2017-07-30T19:30:26.274Z,26.89
2017-07-30T19:32:53.870Z,26.83
2017-07-30T19:35:21.453Z,26.75
2017-07-30T19:37:49.245Z,26.54
2017-07-30T19:40:16.840Z,26.52
2017-07-30T19:42:44.401Z,26.38
2017-07-30T19:45:11.975Z,26.34
2017-07-30T19:47:39.615Z,26.21
2017-07-30T19:50:07.207Z,26.02
2017-07-30T19:52:34.798Z,26.09
2017-07-30T19:55:03.315Z,26.05
2017-07-30T19:57:30.846Z,26.04
2017-07-30T19:59:58.474Z,26.02
2017-07-30T20:02:26.069Z,25.97
2017-07-30T20:04:53.670Z,25.87
2017-07-30T20:07:21.301Z,25.85
2017-07-30T20:09:48.921Z,25.76
2017-07-30T20:12:16.662Z,25.57
2017-07-30T20:14:45.253Z,25.54
2017-07-30T20:17:12.867Z,25.36
2017-07-30T20:19:40.431Z,25.32
2017-07-30T20:22:08.019Z,25.17
2017-07-30T20:24:35.611Z,25.15
2017-07-30T20:27:04.061Z,25.03
2017-07-30T20:29:31.629Z,25.06
2017-07-30T20:31:59.386Z,25.02
2017-07-30T20:34:26.936Z,24.97
2017-07-30T20:36:55.647Z,24.89
2017-07-30T20:39:24.388Z,24.91
2017-07-30T20:41:53.040Z,24.86
2017-07-30T20:44:22.635Z,24.75
2017-07-30T20:46:51.261Z,24.78
2017-07-30T20:49:19.808Z,24.79
2017-07-30T20:51:50.825Z,24.87
2017-07-30T20:54:19.047Z,24.88
2017-07-30T20:56:47.685Z,24.81
2017-07-30T20:59:17.821Z,24.89
2017-07-30T21:01:46.913Z,24.80
2017-07-30T21:04:17.472Z,24.86
2017-07-30T21:06:48.055Z,24.83
2017-07-30T21:09:17.309Z,24.70
2017-07-30T21:11:46.124Z,24.65
2017-07-30T21:14:14.471Z,24.56
2017-07-30T21:16:42.251Z,24.50
2017-07-30T21:19:09.896Z,24.49
2017-07-30T21:21:37.466Z,24.50
2017-07-30T21:24:05.026Z,24.50
2017-07-30T21:26:32.906Z,24.52
2017-07-30T21:29:00.512Z,24.59
2017-07-30T21:31:28.139Z,24.59
2017-07-30T21:33:55.811Z,24.59
2017-07-30T21:36:23.480Z,24.60
2017-07-30T21:38:51.097Z,24.51
2017-07-30T21:41:18.860Z,24.53
2017-07-30T21:43:46.452Z,24.54
2017-07-30T21:46:14.041Z,24.47
2017-07-30T21:48:41.624Z,24.33
2017-07-30T21:51:09.200Z,24.34
2017-07-30T21:53:36.782Z,24.37
2017-07-30T21:56:04.400Z,24.33
2017-07-30T21:58:31.994Z,24.19
2017-07-30T22:01:00.456Z,24.15
2017-07-30T22:03:28.117Z,24.14
2017-07-30T22:05:55.770Z,24.03
2017-07-30T22:08:23.357Z,23.95
2017-07-30T22:10:50.938Z,23.98
2017-07-30T22:13:18.608Z,23.90
2017-07-30T22:15:46.259Z,23.75
2017-07-30T22:18:13.925Z,23.69
2017-07-30T22:20:41.682Z,23.55
2017-07-30T22:23:09.270Z,23.59
2017-07-30T22:25:36.827Z,23.63
2017-07-30T22:28:04.455Z,23.58
2017-07-30T22:30:32.073Z,23.46
2017-07-30T22:32:59.669Z,23.47
2017-07-30T22:35:27.242Z,23.31
2017-07-30T22:37:54.854Z,23.20
2017-07-30T22:40:22.441Z,23.06
2017-07-30T22:42:50.013Z,23.18
2017-07-30T22:45:17.639Z,23.15
2017-07-30T22:47:45.247Z,23.00
2017-07-30T22:50:12.829Z,22.83
2017-07-30T22:52:40.424Z,22.79
2017-07-30T22:55:08.057Z,22.78
2017-07-30T22:57:35.603Z,22.73
2017-07-30T23:00:04.192Z,22.73
2017-07-30T23:02:32.334Z,22.70
2017-07-30T23:04:59.937Z,22.72
2017-07-30T23:07:27.525Z,22.71
2017-07-30T23:09:55.341Z,22.77
2017-07-30T23:12:23.101Z,22.89
2017-07-30T23:14:50.713Z,22.82
2017-07-30T23:17:18.347Z,22.85
2017-07-30T23:19:45.968Z,22.74
2017-07-30T23:22:13.557Z,22.67
2017-07-30T23:24:41.186Z,22.80
2017-07-30T23:27:08.860Z,22.93
2017-07-30T23:29:36.535Z,22.94
2017-07-30T23:32:04.190Z,22.74
2017-07-30T23:34:31.743Z,22.91
2017-07-30T23:36:59.434Z,23.02
2017-07-30T23:39:27.110Z,22.99
2017-07-30T23:41:54.873Z,22.94
2017-07-30T23:44:22.500Z,22.82
2017-07-30T23:46:50.122Z,22.81
2017-07-30T23:49:17.964Z,22.87
2017-07-30T23:51:45.614Z,22.76
2017-07-30T23:54:13.214Z,22.71
2017-07-30T23:56:40.953Z,22.65
2017-07-30T23:59:08.596Z,22.66
